Silver Shadow — C6FN6 — position and weather

sailwx.info

Track history (hours):
 
Tides and Currents Weather Stations Pressure Air Temp Water Temp Dewpoint Dewpoint Depression Visibility Wind Speed Wind Dir Waves Ship Positions

Silver Shadow

Operator: V Ships Leisure SAM

Last reported at 2017-May-25 02:55 UTC. Time now 2017-May-25 03:02 UTC.
Position N 50°30' W 126°26'.

Length 186 m; draft 6.1 m.

Type: Ship. MMSI: 308628000.

Date/timePositionNaut miles runAvg speedWind from/ knotsBaromVisibWave heightAir tempDewpointWater temp
2017-May-25 02:55N 50°30' W 126°26'815.0
2017-May-25 02:23N 50°31' W 126°38'513.1
2017-May-25 02:00N 50°35' W 126°43'815.8
2017-May-25 01:30N 50°40' W 126°52'917.9
2017-May-25 01:00N 50°44' W 127°05'917.8
2017-May-25 00:30N 50°47' W 127°18'917.4
2017-May-25 00:00N 50°51' W 127°31'816.9
2017-May-24 23:30N 50°56' W 127°42'713.1
2017-May-24 23:00N 50°60' W 127°50'612.1
2017-May-24 22:30N 51°03' W 127°58'712.9
2017-May-24 21:59N 51°07' W 128°06'713.8
2017-May-24 21:30N 51°11' W 128°15'714.1
2017-May-24 21:00N 51°15' W 128°24'714.2
2017-May-24 20:30N 51°20' W 128°33'714.0
2017-May-24 20:00N 51°24' W 128°42'714.0
2017-May-24 19:30N 51°28' W 128°51'713.9
2017-May-24 19:00N 51°32' W 129°00'714.1
2017-May-24 18:30N 51°36' W 129°10'815.3
2017-May-24 18:00N 51°40' W 129°20'816.4
2017-May-24 17:30N 51°44' W 129°31'  
2017-May-15 20:00N 54°48' W 157°54'   090 / 201002.010.8 7.0 5.9 4.9
Track history (hours):
 
Tides and Currents Weather Stations Pressure Air Temp Water Temp Dewpoint Dewpoint Depression Visibility Wind Speed Wind Dir Waves Ship Positions

Silver Shadow

Operator: V Ships Leisure SAM

Last reported at 2017-May-25 02:55 UTC. Time now 2017-May-25 03:02 UTC.
Position N 50°30' W 126°26'.

Length 186 m; draft 6.1 m.

Type: Ship. MMSI: 308628000.

Date/timePositionNaut miles runAvg speedWind from/ knotsBaromVisibWave heightAir tempDewpointWater temp
2017-May-25 02:55N 50°30' W 126°26'815.0
2017-May-25 02:23N 50°31' W 126°38'513.1
2017-May-25 02:00N 50°35' W 126°43'815.8
2017-May-25 01:30N 50°40' W 126°52'917.9
2017-May-25 01:00N 50°44' W 127°05'917.8
2017-May-25 00:30N 50°47' W 127°18'917.4
2017-May-25 00:00N 50°51' W 127°31'816.9
2017-May-24 23:30N 50°56' W 127°42'713.1
2017-May-24 23:00N 50°60' W 127°50'612.1
2017-May-24 22:30N 51°03' W 127°58'712.9
2017-May-24 21:59N 51°07' W 128°06'713.8
2017-May-24 21:30N 51°11' W 128°15'714.1
2017-May-24 21:00N 51°15' W 128°24'714.2
2017-May-24 20:30N 51°20' W 128°33'714.0
2017-May-24 20:00N 51°24' W 128°42'714.0
2017-May-24 19:30N 51°28' W 128°51'713.9
2017-May-24 19:00N 51°32' W 129°00'714.1
2017-May-24 18:30N 51°36' W 129°10'815.3
2017-May-24 18:00N 51°40' W 129°20'816.4
2017-May-24 17:30N 51°44' W 129°31'  
2017-May-15 20:00N 54°48' W 157°54'   090 / 201002.010.8 7.0 5.9 4.9

Dump ship's entire track history